createdAt,value
2023-05-10T00:00:35.478Z,10.73
2023-05-10T00:01:38.383Z,10.59
2023-05-10T00:02:41.829Z,10.57
2023-05-10T00:03:44.946Z,10.60
2023-05-10T00:04:47.945Z,10.62
2023-05-10T00:05:50.833Z,10.57
2023-05-10T00:06:53.918Z,10.56
2023-05-10T00:07:56.832Z,10.65
2023-05-10T00:08:59.922Z,10.70
2023-05-10T00:10:02.793Z,10.71
2023-05-10T00:11:05.682Z,10.68
2023-05-10T00:12:08.501Z,10.56
2023-05-10T00:13:11.281Z,10.60
2023-05-10T00:14:14.174Z,10.50
2023-05-10T00:15:16.996Z,10.42
2023-05-10T00:16:19.794Z,10.54
2023-05-10T00:17:22.671Z,10.52
2023-05-10T00:18:25.739Z,10.42
2023-05-10T00:19:28.511Z,10.31
2023-05-10T00:20:31.338Z,10.32
2023-05-10T00:21:34.960Z,10.28
2023-05-10T00:22:38.047Z,10.34
2023-05-10T00:23:41.120Z,10.42
2023-05-10T00:24:43.986Z,10.22
2023-05-10T00:25:46.909Z,10.23
2023-05-10T00:26:49.837Z,10.25
2023-05-10T00:27:52.595Z,10.28
2023-05-10T00:28:55.586Z,10.22
2023-05-10T00:29:58.746Z,10.24
2023-05-10T00:31:01.626Z,10.05
2023-05-10T00:32:04.635Z,10.11
2023-05-10T00:33:07.515Z,9.96
2023-05-10T00:34:10.376Z,10.09
2023-05-10T00:35:13.212Z,10.05
2023-05-10T00:36:16.061Z,10.14
2023-05-10T00:37:18.985Z,10.20
2023-05-10T00:38:21.923Z,10.21
2023-05-10T00:39:25.122Z,10.19
2023-05-10T00:40:28.080Z,10.10
2023-05-10T00:41:34.793Z,10.17
2023-05-10T00:42:37.880Z,10.05
2023-05-10T00:43:40.875Z,10.04
2023-05-10T00:44:43.893Z,10.02
2023-05-10T00:45:47.267Z,10.09
2023-05-10T00:46:50.772Z,10.02
2023-05-10T00:47:56.412Z,10.07
2023-05-10T00:48:59.529Z,9.95
2023-05-10T00:50:03.354Z,10.06
2023-05-10T00:51:06.508Z,10.12
2023-05-10T00:52:10.470Z,10.07
2023-05-10T00:53:13.524Z,10.07
2023-05-10T00:54:16.593Z,10.03
2023-05-10T00:55:19.928Z,9.98
2023-05-10T00:56:24.544Z,9.97
2023-05-10T00:57:28.133Z,10.04
2023-05-10T00:58:32.215Z,10.03
2023-05-10T00:59:35.501Z,9.92
2023-05-10T01:00:39.828Z,9.92
2023-05-10T01:01:42.677Z,9.82
2023-05-10T01:02:47.598Z,9.82
2023-05-10T01:03:51.138Z,9.78
2023-05-10T01:04:54.049Z,9.73
2023-05-10T01:05:56.975Z,9.85
2023-05-10T01:07:00.673Z,9.90
2023-05-10T01:08:03.961Z,9.87
2023-05-10T01:09:07.741Z,9.84
2023-05-10T01:10:11.764Z,9.79
2023-05-10T01:11:15.025Z,9.85
2023-05-10T01:12:18.251Z,9.86
2023-05-10T01:13:34.992Z,9.89
2023-05-10T01:14:38.147Z,9.88
2023-05-10T01:15:42.120Z,9.86
2023-05-10T01:16:47.596Z,9.75
2023-05-10T01:17:50.627Z,9.83
2023-05-10T01:18:54.168Z,9.75
2023-05-10T01:19:57.290Z,9.71
2023-05-10T01:21:18.235Z,9.74
2023-05-10T01:22:26.785Z,9.75
2023-05-10T01:23:46.967Z,9.81
2023-05-10T01:25:04.669Z,9.93
2023-05-10T01:26:19.284Z,9.77
2023-05-10T01:27:40.736Z,9.74
2023-05-10T01:29:08.221Z,9.79
2023-05-10T01:30:16.878Z,9.82
2023-05-10T01:31:56.996Z,9.79
2023-05-10T01:33:02.554Z,9.82
2023-05-10T01:34:14.249Z,9.80
2023-05-10T01:35:28.901Z,9.76
2023-05-10T01:36:46.961Z,9.74
2023-05-10T01:38:17.648Z,9.88
2023-05-10T01:39:42.184Z,9.82
2023-05-10T01:41:30.436Z,9.81
2023-05-10T01:42:42.340Z,9.87
2023-05-10T01:44:28.052Z,9.82
2023-05-10T01:45:53.868Z,9.80
2023-05-10T01:47:07.558Z,9.77
2023-05-10T01:48:12.527Z,9.79
2023-05-10T01:49:24.783Z,9.65
2023-05-10T01:50:31.861Z,9.71
2023-05-10T01:51:46.554Z,9.79
2023-05-10T01:52:55.915Z,9.69
2023-05-10T01:54:03.777Z,9.75
2023-05-10T01:55:09.362Z,9.74
2023-05-10T01:56:14.229Z,9.72
2023-05-10T01:57:19.116Z,9.76
2023-05-10T01:58:28.536Z,9.60
2023-05-10T01:59:41.959Z,9.66
2023-05-10T02:00:47.411Z,9.62
2023-05-10T02:01:52.405Z,9.65
2023-05-10T02:02:56.668Z,9.66
2023-05-10T02:04:00.660Z,9.76
2023-05-10T02:05:05.292Z,9.83
2023-05-10T02:06:10.526Z,9.82
2023-05-10T02:07:15.323Z,9.92
2023-05-10T02:08:19.406Z,9.96
2023-05-10T02:09:23.634Z,9.84
2023-05-10T02:10:27.332Z,9.84
2023-05-10T02:11:31.842Z,9.75
2023-05-10T02:12:40.408Z,9.82
2023-05-10T02:13:44.831Z,9.83
2023-05-10T02:14:49.001Z,9.79
2023-05-10T02:15:52.545Z,9.76
2023-05-10T02:16:57.361Z,9.88
2023-05-10T02:18:03.881Z,9.91
2023-05-10T02:19:10.005Z,9.92
2023-05-10T02:20:14.264Z,9.90
2023-05-10T02:21:18.676Z,9.94
2023-05-10T02:22:23.122Z,10.02
2023-05-10T02:23:27.573Z,9.87
2023-05-10T02:24:31.671Z,9.91
2023-05-10T02:25:35.332Z,9.77
2023-05-10T02:26:40.497Z,9.81
2023-05-10T02:27:46.005Z,9.92
2023-05-10T02:28:51.022Z,9.94
2023-05-10T02:29:55.736Z,10.03
2023-05-10T02:30:58.837Z,9.98
2023-05-10T02:32:02.927Z,10.05
2023-05-10T02:33:07.544Z,10.01
2023-05-10T02:34:12.515Z,10.01
2023-05-10T02:35:16.505Z,9.96
2023-05-10T02:36:23.679Z,9.91
2023-05-10T02:37:27.550Z,9.88
2023-05-10T02:38:32.669Z,9.90
2023-05-10T02:39:36.457Z,9.87
2023-05-10T02:40:42.011Z,9.97
2023-05-10T02:41:48.140Z,9.98
2023-05-10T02:42:55.880Z,10.02
2023-05-10T02:44:03.960Z,9.95
2023-05-10T02:45:13.333Z,9.89
2023-05-10T02:46:16.232Z,9.99
2023-05-10T02:47:20.330Z,10.06
2023-05-10T02:48:23.305Z,10.14
2023-05-10T02:49:26.100Z,9.98
2023-05-10T02:50:31.517Z,9.95
2023-05-10T02:51:37.553Z,9.95
2023-05-10T02:52:45.818Z,10.00
2023-05-10T02:53:51.425Z,9.91
2023-05-10T02:54:59.879Z,9.88
2023-05-10T02:56:08.489Z,9.92
2023-05-10T02:57:17.217Z,9.97
2023-05-10T02:58:22.716Z,9.88
2023-05-10T02:59:25.732Z,9.93
2023-05-10T03:00:28.560Z,9.95
2023-05-10T03:01:31.348Z,9.92
2023-05-10T03:02:34.175Z,9.83
2023-05-10T03:03:36.959Z,9.87
2023-05-10T03:04:40.011Z,9.86
2023-05-10T03:05:43.013Z,9.85
2023-05-10T03:06:46.277Z,9.94
2023-05-10T03:07:49.821Z,9.79
2023-05-10T03:08:52.813Z,9.88
2023-05-10T03:09:55.713Z,9.83
2023-05-10T03:11:33.338Z,9.76
2023-05-10T03:12:54.664Z,9.71
2023-05-10T03:14:22.324Z,9.77
2023-05-10T03:15:40.228Z,9.87
2023-05-10T03:17:32.496Z,9.83
2023-05-10T03:18:56.107Z,9.79
2023-05-10T03:20:04.700Z,9.74
2023-05-10T03:21:13.533Z,9.77
2023-05-10T03:22:26.621Z,9.83
2023-05-10T03:23:38.351Z,9.80
2023-05-10T03:24:43.532Z,9.72
2023-05-10T03:25:49.251Z,9.59
2023-05-10T03:26:57.931Z,9.64
2023-05-10T03:28:03.489Z,9.60
2023-05-10T03:29:09.182Z,9.63
2023-05-10T03:30:13.946Z,9.72
2023-05-10T03:31:17.031Z,9.73
2023-05-10T03:32:20.208Z,9.79
2023-05-10T03:33:23.038Z,9.79
2023-05-10T03:34:26.368Z,9.71
2023-05-10T03:35:29.234Z,9.72
2023-05-10T03:36:31.991Z,9.56
2023-05-10T03:37:34.806Z,9.63
2023-05-10T03:38:37.835Z,9.60
2023-05-10T03:39:40.781Z,9.55
2023-05-10T03:40:43.633Z,9.63
2023-05-10T03:41:46.402Z,9.58
2023-05-10T03:42:49.368Z,9.54
2023-05-10T03:43:52.495Z,9.60
2023-05-10T03:44:55.416Z,9.61
2023-05-10T03:45:58.228Z,9.53
2023-05-10T03:47:01.228Z,9.61
2023-05-10T03:48:04.555Z,9.57
2023-05-10T03:49:07.581Z,9.54
2023-05-10T03:50:11.557Z,9.44
2023-05-10T03:51:14.500Z,9.51
2023-05-10T03:52:17.272Z,9.42
2023-05-10T03:53:20.521Z,9.46
2023-05-10T03:54:23.324Z,9.46
2023-05-10T03:55:26.171Z,9.44
2023-05-10T03:56:29.002Z,9.52
2023-05-10T03:57:31.976Z,9.45
2023-05-10T03:58:35.331Z,9.48
2023-05-10T03:59:38.224Z,9.50
2023-05-10T04:00:44.951Z,9.48
2023-05-10T04:01:47.869Z,9.46
2023-05-10T04:02:50.712Z,9.44
2023-05-10T04:03:53.742Z,9.45
2023-05-10T04:04:56.738Z,9.37
2023-05-10T04:06:03.219Z,9.42
2023-05-10T04:07:06.241Z,9.42
2023-05-10T04:08:09.191Z,9.32
2023-05-10T04:09:12.174Z,9.48
2023-05-10T04:10:15.275Z,9.60
2023-05-10T04:11:18.217Z,9.51
2023-05-10T04:12:21.158Z,9.49
2023-05-10T04:13:24.060Z,9.56
2023-05-10T04:14:26.917Z,9.48
2023-05-10T04:15:29.800Z,9.53
2023-05-10T04:16:32.656Z,9.52
2023-05-10T04:17:35.593Z,9.56
2023-05-10T04:18:38.528Z,9.57
2023-05-10T04:19:41.523Z,9.50
2023-05-10T04:20:44.549Z,9.33
2023-05-10T04:21:47.294Z,9.50
2023-05-10T04:22:50.149Z,9.50
2023-05-10T04:23:53.050Z,9.51
2023-05-10T04:24:55.984Z,9.52
2023-05-10T04:26:02.885Z,9.55
2023-05-10T04:27:05.694Z,9.53
2023-05-10T04:28:08.678Z,9.43
2023-05-10T04:29:11.587Z,9.49
2023-05-10T04:30:14.793Z,9.51
2023-05-10T04:31:18.484Z,9.51
2023-05-10T04:32:21.593Z,9.44
2023-05-10T04:33:24.560Z,9.56
2023-05-10T04:34:27.286Z,9.71
2023-05-10T04:35:30.304Z,9.67
2023-05-10T04:36:35.263Z,9.58
2023-05-10T04:37:38.168Z,9.59
2023-05-10T04:38:41.217Z,9.57
2023-05-10T04:39:44.042Z,9.62
2023-05-10T04:40:47.009Z,9.64
2023-05-10T04:41:49.990Z,9.71
2023-05-10T04:42:53.253Z,9.78
2023-05-10T04:43:56.680Z,9.74
2023-05-10T04:44:59.476Z,9.87
2023-05-10T04:46:02.391Z,9.85
2023-05-10T04:47:05.725Z,9.90
2023-05-10T04:48:08.742Z,9.86
2023-05-10T04:49:11.527Z,9.86
2023-05-10T04:50:14.672Z,9.71
2023-05-10T04:51:17.741Z,9.81
2023-05-10T04:52:20.621Z,9.88
2023-05-10T04:53:23.896Z,9.83
2023-05-10T04:54:26.789Z,9.84
2023-05-10T04:55:29.597Z,9.95
2023-05-10T04:56:32.465Z,9.99
2023-05-10T04:57:35.184Z,10.02
2023-05-10T04:58:38.102Z,10.09
2023-05-10T04:59:40.996Z,9.99
2023-05-10T05:00:44.011Z,9.96
2023-05-10T05:01:46.901Z,10.10
2023-05-10T05:02:50.308Z,9.98
2023-05-10T05:03:54.290Z,10.04
2023-05-10T05:04:59.398Z,10.11
2023-05-10T05:06:02.240Z,9.99
2023-05-10T05:07:05.577Z,10.00
2023-05-10T05:08:08.479Z,10.11
2023-05-10T05:09:11.441Z,10.16
2023-05-10T05:10:14.528Z,10.23
2023-05-10T05:11:18.812Z,10.27
2023-05-10T05:12:21.807Z,10.29
2023-05-10T05:13:25.018Z,10.37
2023-05-10T05:14:27.980Z,10.51
2023-05-10T05:15:31.768Z,10.45
2023-05-10T05:16:34.814Z,10.54
2023-05-10T05:17:38.246Z,10.41
2023-05-10T05:18:41.096Z,10.51
2023-05-10T05:19:43.944Z,10.58
2023-05-10T05:20:46.819Z,10.67
2023-05-10T05:21:49.638Z,10.79
2023-05-10T05:22:52.690Z,10.79
2023-05-10T05:23:55.581Z,10.88
2023-05-10T05:24:59.487Z,10.85
2023-05-10T05:26:02.298Z,10.81
2023-05-10T05:27:05.536Z,10.72
2023-05-10T05:28:08.737Z,10.74
2023-05-10T05:29:11.566Z,10.83
2023-05-10T05:30:14.564Z,10.99
2023-05-10T05:31:17.292Z,11.04
2023-05-10T05:32:20.622Z,10.89
2023-05-10T05:33:23.362Z,10.93
2023-05-10T05:34:27.285Z,10.74
2023-05-10T05:35:30.241Z,10.77
2023-05-10T05:36:35.305Z,10.79
2023-05-10T05:37:39.816Z,10.76
2023-05-10T05:38:43.214Z,10.79
2023-05-10T05:39:46.943Z,10.85
2023-05-10T05:40:49.812Z,10.95
2023-05-10T05:41:52.656Z,11.08
2023-05-10T05:42:55.649Z,11.12
2023-05-10T05:43:58.530Z,11.15
2023-05-10T05:45:01.300Z,11.00
2023-05-10T05:46:04.231Z,10.99
2023-05-10T05:47:07.584Z,10.97
2023-05-10T05:48:10.697Z,11.09
2023-05-10T05:49:13.719Z,11.18
2023-05-10T05:50:16.722Z,11.36
2023-05-10T05:51:19.530Z,11.55
2023-05-10T05:52:22.485Z,11.41
2023-05-10T05:53:25.729Z,11.49
2023-05-10T05:54:29.253Z,11.65
2023-05-10T05:55:32.795Z,11.76
2023-05-10T05:56:35.621Z,11.74
2023-05-10T05:57:38.880Z,11.76
2023-05-10T05:58:41.964Z,11.92
2023-05-10T05:59:45.109Z,11.91
2023-05-10T06:00:48.081Z,11.94
2023-05-10T06:01:51.503Z,11.85
2023-05-10T06:02:54.527Z,11.99
2023-05-10T06:03:57.525Z,12.08
2023-05-10T06:05:00.411Z,12.11
2023-05-10T06:06:03.213Z,11.74
2023-05-10T06:07:06.253Z,11.81
2023-05-10T06:08:09.119Z,12.03
2023-05-10T06:09:12.609Z,12.33
2023-05-10T06:10:15.577Z,12.21
2023-05-10T06:11:18.455Z,12.44
2023-05-10T06:12:21.337Z,12.49
2023-05-10T06:13:24.249Z,12.48
2023-05-10T06:14:27.371Z,12.63
2023-05-10T06:15:30.231Z,12.50
2023-05-10T06:16:33.123Z,12.57
2023-05-10T06:17:36.187Z,12.39
2023-05-10T06:18:39.144Z,12.43
2023-05-10T06:19:41.931Z,12.48
2023-05-10T06:20:44.832Z,12.59
2023-05-10T06:21:47.656Z,12.52
2023-05-10T06:22:50.503Z,12.48
2023-05-10T06:23:53.402Z,12.53
2023-05-10T06:24:56.443Z,12.75
2023-05-10T06:25:59.327Z,12.63
2023-05-10T06:27:03.261Z,12.71
2023-05-10T06:28:06.385Z,12.60
2023-05-10T06:29:09.156Z,12.72
2023-05-10T06:30:14.584Z,12.73
2023-05-10T06:31:17.779Z,12.69
2023-05-10T06:32:20.712Z,12.66
2023-05-10T06:33:23.736Z,12.90
2023-05-10T06:34:26.972Z,12.86
2023-05-10T06:35:30.477Z,12.82
2023-05-10T06:36:33.247Z,12.87
2023-05-10T06:37:36.097Z,12.93
2023-05-10T06:38:39.367Z,12.85
2023-05-10T06:39:42.419Z,12.62
2023-05-10T06:40:45.446Z,12.53
2023-05-10T06:41:48.409Z,12.62
2023-05-10T06:42:51.289Z,12.73
2023-05-10T06:43:54.189Z,12.65
2023-05-10T06:44:56.908Z,12.79
2023-05-10T06:46:00.003Z,12.87
2023-05-10T06:47:02.973Z,12.95
2023-05-10T06:48:06.080Z,12.93
2023-05-10T06:49:09.373Z,13.10
2023-05-10T06:50:15.488Z,13.23
2023-05-10T06:51:18.795Z,13.00
2023-05-10T06:52:41.534Z,12.88
2023-05-10T06:54:04.638Z,13.01
2023-05-10T06:55:08.198Z,12.77
2023-05-10T06:56:11.182Z,13.03
2023-05-10T06:57:27.440Z,13.02
2023-05-10T06:58:33.956Z,12.96
2023-05-10T06:59:37.762Z,12.93
2023-05-10T07:00:41.855Z,13.35
2023-05-10T07:01:45.031Z,13.77
2023-05-10T07:02:48.385Z,13.93
2023-05-10T07:03:51.953Z,13.92
2023-05-10T07:04:55.408Z,13.61
2023-05-10T07:06:04.317Z,13.79
2023-05-10T07:07:07.510Z,13.93
2023-05-10T07:08:10.340Z,13.87
2023-05-10T07:09:13.146Z,14.04
2023-05-10T07:10:16.135Z,14.08
2023-05-10T07:11:19.061Z,14.43
2023-05-10T07:12:22.336Z,14.31
2023-05-10T07:13:25.287Z,14.38
2023-05-10T07:14:28.480Z,14.36
2023-05-10T07:15:31.424Z,14.53
2023-05-10T07:16:34.287Z,14.59
2023-05-10T07:17:37.275Z,14.47
2023-05-10T07:18:40.199Z,14.63
2023-05-10T07:19:43.071Z,14.51
2023-05-10T07:20:45.981Z,14.50
2023-05-10T07:21:48.965Z,14.93
2023-05-10T07:22:51.815Z,15.25
2023-05-10T07:23:54.836Z,15.38
2023-05-10T07:24:57.845Z,15.11
2023-05-10T07:26:01.391Z,14.98
2023-05-10T07:27:05.459Z,15.09
2023-05-10T07:28:08.254Z,15.27
2023-05-10T07:29:11.287Z,15.37
2023-05-10T07:30:14.568Z,15.16
2023-05-10T07:31:17.442Z,14.84
2023-05-10T07:32:20.445Z,14.78
2023-05-10T07:33:23.282Z,14.83
2023-05-10T07:34:26.655Z,15.02
2023-05-10T07:35:29.598Z,15.11
2023-05-10T07:36:32.470Z,15.12
2023-05-10T07:37:35.328Z,14.79
2023-05-10T07:38:40.798Z,14.71
2023-05-10T07:39:44.067Z,14.72
2023-05-10T07:40:46.970Z,14.78
2023-05-10T07:41:49.785Z,14.96
2023-05-10T07:42:53.104Z,14.96
2023-05-10T07:43:56.004Z,15.45
2023-05-10T07:44:59.085Z,15.11
2023-05-10T07:46:02.336Z,15.28
2023-05-10T07:47:05.250Z,14.70
2023-05-10T07:48:08.197Z,14.62
2023-05-10T07:49:11.184Z,14.73
2023-05-10T07:50:14.685Z,14.75
2023-05-10T07:51:17.755Z,14.81
2023-05-10T07:52:22.392Z,14.70
2023-05-10T07:53:28.442Z,14.98
2023-05-10T07:54:31.330Z,15.46
2023-05-10T07:55:34.712Z,15.53
2023-05-10T07:56:37.715Z,15.05
2023-05-10T07:57:40.808Z,15.40
2023-05-10T07:58:43.623Z,15.90
2023-05-10T07:59:46.552Z,16.06
2023-05-10T08:00:50.479Z,16.08
2023-05-10T08:01:53.371Z,16.35
2023-05-10T08:02:56.361Z,16.53
2023-05-10T08:03:59.405Z,16.71
2023-05-10T08:05:02.471Z,16.74
2023-05-10T08:06:05.741Z,17.09
2023-05-10T08:07:08.731Z,16.90
2023-05-10T08:08:11.547Z,17.06
2023-05-10T08:09:14.769Z,16.72
2023-05-10T08:10:18.054Z,16.42
2023-05-10T08:11:22.404Z,16.51
2023-05-10T08:12:25.296Z,16.74
2023-05-10T08:13:28.262Z,16.59
2023-05-10T08:14:31.083Z,16.90
2023-05-10T08:15:34.026Z,17.04
2023-05-10T08:16:36.855Z,16.51
2023-05-10T08:17:39.847Z,15.86
2023-05-10T08:18:42.893Z,16.08
2023-05-10T08:19:46.034Z,16.51
2023-05-10T08:20:49.233Z,16.15
2023-05-10T08:21:52.277Z,16.31
2023-05-10T08:22:55.192Z,16.29
2023-05-10T08:23:58.916Z,15.90
2023-05-10T08:25:01.872Z,16.59
2023-05-10T08:26:05.215Z,16.95
2023-05-10T08:27:08.144Z,17.13
2023-05-10T08:28:11.977Z,17.21
2023-05-10T08:29:15.883Z,17.21
2023-05-10T08:30:18.828Z,17.79
2023-05-10T08:31:21.864Z,17.97
2023-05-10T08:32:24.938Z,17.86
2023-05-10T08:33:27.991Z,17.76
2023-05-10T08:34:32.331Z,16.94
2023-05-10T08:35:36.134Z,17.20
2023-05-10T08:36:39.074Z,17.16
2023-05-10T08:37:41.868Z,17.38
2023-05-10T08:38:44.702Z,17.13
2023-05-10T08:39:50.532Z,17.10
2023-05-10T08:40:59.810Z,17.02
2023-05-10T08:42:05.696Z,17.15
2023-05-10T08:43:11.308Z,17.11
2023-05-10T08:44:14.529Z,17.08
2023-05-10T08:45:19.687Z,16.92
2023-05-10T08:46:24.525Z,16.52
2023-05-10T08:47:27.894Z,16.36
2023-05-10T08:48:32.269Z,16.13
2023-05-10T08:49:36.019Z,16.29
2023-05-10T08:50:41.232Z,16.75
2023-05-10T08:51:48.584Z,17.04
2023-05-10T08:52:54.334Z,17.20
2023-05-10T08:53:58.256Z,17.15
2023-05-10T08:55:01.376Z,16.93
2023-05-10T08:56:05.097Z,17.02
2023-05-10T08:57:08.105Z,16.65
2023-05-10T08:58:11.369Z,16.34
2023-05-10T08:59:15.381Z,16.02
2023-05-10T09:00:19.810Z,16.17
2023-05-10T09:01:23.115Z,16.71
2023-05-10T09:02:27.136Z,16.99
2023-05-10T09:03:30.913Z,17.07
2023-05-10T09:04:34.303Z,16.85
2023-05-10T09:05:37.798Z,16.92
2023-05-10T09:06:41.145Z,17.03
2023-05-10T09:07:43.981Z,16.70
2023-05-10T09:08:47.455Z,16.14
2023-05-10T09:09:50.464Z,15.91
2023-05-10T09:10:54.246Z,16.15
2023-05-10T09:11:57.215Z,16.01
2023-05-10T09:13:00.577Z,16.73
2023-05-10T09:14:03.977Z,17.28
2023-05-10T09:15:10.837Z,17.44
2023-05-10T09:16:21.125Z,17.38
2023-05-10T09:17:25.852Z,17.48
2023-05-10T09:18:28.974Z,17.42
2023-05-10T09:19:31.911Z,17.51
2023-05-10T09:20:34.705Z,17.61
2023-05-10T09:21:39.774Z,16.78
2023-05-10T09:22:42.640Z,17.09
2023-05-10T09:23:48.657Z,17.67
2023-05-10T09:25:25.570Z,17.55
2023-05-10T09:26:28.957Z,17.41
2023-05-10T09:27:32.032Z,17.44
2023-05-10T09:28:51.036Z,17.47
2023-05-10T09:29:55.663Z,17.66
2023-05-10T09:30:58.893Z,17.32
2023-05-10T09:32:02.034Z,17.20
2023-05-10T09:33:05.405Z,16.56
2023-05-10T09:34:08.449Z,16.97
2023-05-10T09:35:19.842Z,17.49
2023-05-10T09:36:22.713Z,17.99
2023-05-10T09:37:31.103Z,18.33
2023-05-10T09:38:50.039Z,18.55
2023-05-10T09:39:56.279Z,18.29
2023-05-10T09:40:59.419Z,18.14
2023-05-10T09:42:20.735Z,17.85
2023-05-10T09:43:23.570Z,18.24
2023-05-10T09:44:27.576Z,18.19
2023-05-10T09:45:37.802Z,18.48
2023-05-10T09:46:41.714Z,18.65
2023-05-10T09:47:44.723Z,18.62
2023-05-10T09:48:48.967Z,18.74
2023-05-10T09:49:52.503Z,19.09
2023-05-10T09:50:58.783Z,19.29
2023-05-10T09:52:04.957Z,18.78
2023-05-10T09:53:07.970Z,18.70
2023-05-10T09:54:12.144Z,18.82
2023-05-10T09:55:15.597Z,18.80
2023-05-10T09:56:38.709Z,18.52
2023-05-10T09:57:42.142Z,19.43
2023-05-10T09:58:45.009Z,19.94
2023-05-10T09:59:48.575Z,19.75
2023-05-10T10:00:55.923Z,19.50
2023-05-10T10:02:00.838Z,20.21
2023-05-10T10:03:04.915Z,19.36
2023-05-10T10:04:12.105Z,19.63
2023-05-10T10:05:15.294Z,19.63
2023-05-10T10:06:29.630Z,19.38
2023-05-10T10:07:34.045Z,19.54
2023-05-10T10:08:37.133Z,20.06
2023-05-10T10:09:40.147Z,20.28
2023-05-10T10:10:46.287Z,19.79
2023-05-10T10:11:49.537Z,20.62
2023-05-10T10:12:53.335Z,20.03
2023-05-10T10:13:56.560Z,19.04
2023-05-10T10:15:02.453Z,18.85
2023-05-10T10:16:06.483Z,18.54
2023-05-10T10:17:10.483Z,18.54
2023-05-10T10:18:16.775Z,18.68
2023-05-10T10:19:21.768Z,18.85
2023-05-10T10:20:26.297Z,18.53
2023-05-10T10:21:29.906Z,18.55
2023-05-10T10:22:32.875Z,18.42
2023-05-10T10:23:38.901Z,18.36
2023-05-10T10:24:41.972Z,18.77
2023-05-10T10:25:46.013Z,18.65
2023-05-10T10:26:50.285Z,18.64
2023-05-10T10:27:53.106Z,19.26
2023-05-10T10:29:18.197Z,19.52
2023-05-10T10:30:27.328Z,19.96
2023-05-10T10:31:39.322Z,19.44
2023-05-10T10:32:54.210Z,19.15
2023-05-10T10:34:09.309Z,19.38
2023-05-10T10:35:12.378Z,19.26
2023-05-10T10:36:16.928Z,19.44
2023-05-10T10:37:19.973Z,19.96
2023-05-10T10:38:23.269Z,20.34
2023-05-10T10:39:26.669Z,20.80
2023-05-10T10:40:34.649Z,20.49
2023-05-10T10:41:45.302Z,20.48
2023-05-10T10:42:51.066Z,19.42
2023-05-10T10:44:29.037Z,19.21
2023-05-10T10:45:32.016Z,19.35
2023-05-10T10:46:35.796Z,19.48
2023-05-10T10:47:38.670Z,19.57
2023-05-10T10:49:11.236Z,19.90
2023-05-10T10:50:14.574Z,20.63
2023-05-10T10:51:17.456Z,20.75
2023-05-10T10:52:42.108Z,20.33
2023-05-10T10:53:45.404Z,19.94
2023-05-10T10:54:58.244Z,19.89
2023-05-10T10:56:10.617Z,19.97
2023-05-10T10:57:14.951Z,19.62
2023-05-10T10:58:36.711Z,19.28
2023-05-10T10:59:47.434Z,19.29
2023-05-10T11:00:50.420Z,19.23
2023-05-10T11:01:53.356Z,19.16
2023-05-10T11:03:13.157Z,19.51
2023-05-10T11:04:18.788Z,19.88
2023-05-10T11:05:25.956Z,20.27
2023-05-10T11:06:36.922Z,20.95
2023-05-10T11:08:07.809Z,21.16
2023-05-10T11:09:13.544Z,21.11
2023-05-10T11:10:21.736Z,21.12
2023-05-10T11:11:24.652Z,20.52
2023-05-10T11:12:27.675Z,20.33
2023-05-10T11:13:40.983Z,20.48
2023-05-10T11:14:43.980Z,20.26
2023-05-10T11:15:51.051Z,19.88
2023-05-10T11:16:54.061Z,20.00
2023-05-10T11:17:57.098Z,19.72
2023-05-10T11:19:06.333Z,19.70
2023-05-10T11:20:16.170Z,19.83
2023-05-10T11:21:19.592Z,19.57
2023-05-10T11:22:22.450Z,19.92
2023-05-10T11:23:49.281Z,19.78
2023-05-10T11:25:01.803Z,20.06
2023-05-10T11:26:06.283Z,19.90
2023-05-10T11:27:09.375Z,19.37
2023-05-10T11:28:14.498Z,19.47
2023-05-10T11:29:17.738Z,19.51
2023-05-10T11:30:21.326Z,18.88
2023-05-10T11:31:24.613Z,19.05
2023-05-10T11:32:27.875Z,18.64
2023-05-10T11:33:31.092Z,18.62
2023-05-10T11:34:36.791Z,18.63
2023-05-10T11:35:42.481Z,18.89
2023-05-10T11:36:52.913Z,19.04
2023-05-10T11:37:55.648Z,19.00
2023-05-10T11:38:58.587Z,18.76
2023-05-10T11:40:01.825Z,18.47
2023-05-10T11:41:04.862Z,18.44
2023-05-10T11:42:10.431Z,18.39
2023-05-10T11:43:13.345Z,18.62
2023-05-10T11:44:16.383Z,18.47
2023-05-10T11:45:19.344Z,18.33
2023-05-10T11:46:24.493Z,18.35
2023-05-10T11:47:27.356Z,18.44
2023-05-10T11:48:31.419Z,18.63
2023-05-10T11:49:34.774Z,18.91
2023-05-10T11:50:37.794Z,18.98
2023-05-10T11:51:41.146Z,18.91
2023-05-10T11:52:44.038Z,19.21
2023-05-10T11:53:46.816Z,19.23
2023-05-10T11:54:53.630Z,19.18
2023-05-10T11:55:56.673Z,19.29
2023-05-10T11:56:59.596Z,19.46
2023-05-10T11:58:03.902Z,19.62
2023-05-10T11:59:07.051Z,19.83
2023-05-10T12:00:10.421Z,19.45
2023-05-10T12:01:13.511Z,20.13
2023-05-10T12:02:16.646Z,20.21
2023-05-10T12:03:20.218Z,19.99
2023-05-10T12:04:23.508Z,19.99
2023-05-10T12:05:26.906Z,19.39
2023-05-10T12:06:38.549Z,19.30
2023-05-10T12:07:41.544Z,18.97
2023-05-10T12:08:51.134Z,19.08
2023-05-10T12:10:13.489Z,19.18
2023-05-10T12:11:16.867Z,19.40
2023-05-10T12:12:19.783Z,19.45
2023-05-10T12:13:22.597Z,19.62
2023-05-10T12:14:25.728Z,20.16
2023-05-10T12:15:29.259Z,20.51
2023-05-10T12:16:32.160Z,20.55
2023-05-10T12:17:35.008Z,20.28
2023-05-10T12:18:41.374Z,20.61
2023-05-10T12:19:45.010Z,21.00
2023-05-10T12:20:47.836Z,21.13
2023-05-10T12:21:50.763Z,20.98
2023-05-10T12:22:58.330Z,20.59
2023-05-10T12:24:04.625Z,20.85
2023-05-10T12:25:09.575Z,20.56
2023-05-10T12:26:12.734Z,20.41
2023-05-10T12:28:36.595Z,19.95
2023-05-10T12:29:45.031Z,20.13
2023-05-10T12:30:47.766Z,20.03
2023-05-10T12:31:55.620Z,19.94
2023-05-10T12:33:11.280Z,19.52
2023-05-10T12:34:41.565Z,19.73
2023-05-10T12:35:54.547Z,19.83
2023-05-10T12:36:57.607Z,20.19
2023-05-10T12:38:00.794Z,20.31
2023-05-10T12:39:04.653Z,20.46
2023-05-10T12:40:09.465Z,20.36
2023-05-10T12:41:14.991Z,20.17
2023-05-10T12:42:17.906Z,20.16
2023-05-10T12:43:20.876Z,20.16
2023-05-10T12:44:23.624Z,20.29
2023-05-10T12:45:26.715Z,20.05
2023-05-10T12:46:29.736Z,20.09
2023-05-10T12:47:33.702Z,19.65
2023-05-10T12:48:37.374Z,19.75
2023-05-10T12:49:40.309Z,19.75
2023-05-10T12:50:43.302Z,19.40
2023-05-10T12:51:46.156Z,19.41
2023-05-10T12:52:48.851Z,19.51
2023-05-10T12:53:51.627Z,19.74
2023-05-10T12:54:54.893Z,19.65
2023-05-10T12:55:58.360Z,19.83
2023-05-10T12:57:01.174Z,19.56
2023-05-10T12:58:03.916Z,19.63
2023-05-10T12:59:06.649Z,19.58
2023-05-10T13:00:10.215Z,19.60
2023-05-10T13:01:13.000Z,19.81
2023-05-10T13:02:19.592Z,20.20
2023-05-10T13:03:22.476Z,20.44
2023-05-10T13:04:25.415Z,20.48
2023-05-10T13:05:28.142Z,20.71
2023-05-10T13:06:31.969Z,20.69
2023-05-10T13:07:34.869Z,20.33
2023-05-10T13:08:37.815Z,20.38
2023-05-10T13:09:41.307Z,20.64
2023-05-10T13:10:44.096Z,20.58
2023-05-10T13:11:46.820Z,20.86
2023-05-10T13:12:49.621Z,21.34
2023-05-10T13:13:52.997Z,21.21
2023-05-10T13:14:55.816Z,20.96
2023-05-10T13:15:58.669Z,20.65
2023-05-10T13:17:01.653Z,21.08
2023-05-10T13:18:05.120Z,21.27
2023-05-10T13:19:08.186Z,21.50
2023-05-10T13:20:11.723Z,21.41
2023-05-10T13:21:14.669Z,21.38
2023-05-10T13:22:23.081Z,21.30
2023-05-10T13:23:31.724Z,21.26
2023-05-10T13:24:34.787Z,20.95
2023-05-10T13:25:37.813Z,20.93
2023-05-10T13:26:41.911Z,20.32
2023-05-10T13:27:44.643Z,20.26
2023-05-10T13:28:47.488Z,20.68
2023-05-10T13:29:50.254Z,20.74
2023-05-10T13:30:53.207Z,20.87
2023-05-10T13:31:56.137Z,21.02
2023-05-10T13:32:59.089Z,21.04
2023-05-10T13:34:02.229Z,21.01
2023-05-10T13:35:05.834Z,21.00
2023-05-10T13:36:08.818Z,20.99
2023-05-10T13:37:11.665Z,21.03
2023-05-10T13:38:14.948Z,20.70
2023-05-10T13:39:18.086Z,20.81
2023-05-10T13:40:20.975Z,20.76
2023-05-10T13:41:23.786Z,20.80
2023-05-10T13:42:26.918Z,20.90
2023-05-10T13:43:30.887Z,21.14
2023-05-10T13:44:35.090Z,20.72
2023-05-10T13:45:38.069Z,20.65
2023-05-10T13:46:41.982Z,20.90
2023-05-10T13:47:44.916Z,20.67
2023-05-10T13:48:48.067Z,20.89
2023-05-10T13:49:50.849Z,20.68
2023-05-10T13:50:53.753Z,20.58
2023-05-10T13:51:56.636Z,20.51
2023-05-10T13:52:59.501Z,20.63
2023-05-10T13:54:03.218Z,20.62
2023-05-10T13:55:06.280Z,20.38
2023-05-10T13:56:09.130Z,19.80
2023-05-10T13:57:14.988Z,20.11
2023-05-10T13:58:18.035Z,19.60
2023-05-10T13:59:20.720Z,19.61
2023-05-10T14:00:23.952Z,19.69
2023-05-10T14:01:26.874Z,19.34
2023-05-10T14:02:29.931Z,19.39
2023-05-10T14:03:33.804Z,19.74
2023-05-10T14:04:36.837Z,19.29
2023-05-10T14:05:39.774Z,19.27
2023-05-10T14:06:42.868Z,19.37
2023-05-10T14:07:45.656Z,19.18